TimeEST,TemperatureF,Dew PointF,Humidity,Sea Level PressureIn,VisibilityMPH,Wind Direction,Wind SpeedMPH,Gust SpeedMPH,PrecipitationIn,Events,Conditions,WindDirDegrees,DateUTC
12:54 AM,50.0,39.9,68,30.13,10.0,SW,4.6,-,N/A,,Mostly Cloudy,220,2013-01-01 05:54:00
1:54 AM,50.0,41.0,71,30.11,10.0,SW,6.9,-,N/A,,Clear,230,2013-01-01 06:54:00
2:54 AM,51.1,42.1,71,30.11,10.0,WSW,6.9,-,N/A,,Clear,240,2013-01-01 07:54:00
3:54 AM,50.0,42.1,74,30.10,10.0,WSW,3.5,-,N/A,,Partly Cloudy,240,2013-01-01 08:54:00
5:54 AM,51.1,43.0,74,30.09,10.0,WSW,3.5,-,N/A,,Overcast,240,2013-01-01 10:54:00
6:54 AM,52.0,44.1,74,30.10,10.0,West,4.6,-,N/A,,Overcast,280,2013-01-01 11:54:00
7:54 AM,52.0,44.1,74,30.10,10.0,SW,5.8,-,N/A,,Overcast,230,2013-01-01 12:54:00
8:54 AM,53.1,45.0,74,30.12,10.0,West,5.8,-,N/A,,Overcast,270,2013-01-01 13:54:00
10:54 AM,55.9,44.1,64,30.12,10.0,West,5.8,-,N/A,,Overcast,270,2013-01-01 15:54:00
12:54 PM,57.0,44.1,62,30.02,10.0,WSW,9.2,-,N/A,,Overcast,240,2013-01-01 17:54:00
1:54 PM,55.9,46.9,72,30.01,10.0,SW,9.2,-,0.00,Rain,Light Rain,230,2013-01-01 18:54:00
2:54 PM,55.9,50.0,80,29.97,10.0,SSW,15.0,-,0.00,,Overcast,210,2013-01-01 19:54:00
5:54 PM,57.0,51.1,81,30.00,10.0,West,5.8,-,N/A,,Overcast,260,2013-01-01 22:54:00
6:54 PM,55.9,52.0,87,30.00,10.0,WSW,6.9,-,N/A,,Overcast,250,2013-01-01 23:54:00
7:54 PM,55.9,52.0,87,30.00,10.0,West,6.9,-,0.00,Rain,Light Rain,260,2013-01-02 00:54:00
8:54 PM,55.0,53.1,93,30.00,7.0,WSW,4.6,-,0.02,Rain,Light Rain,250,2013-01-02 01:54:00
9:54 PM,55.0,53.1,93,30.01,9.0,West,4.6,-,0.00,,Overcast,280,2013-01-02 02:54:00
10:03 PM,55.4,53.6,94,30.01,9.0,West,3.5,-,N/A,,Overcast,280,2013-01-02 03:03:00
10:16 PM,55.4,53.6,94,30.00,8.0,Calm,Calm,-,N/A,,Overcast,0,2013-01-02 03:16:00
10:23 PM,55.4,51.8,88,30.00,7.0,West,3.5,-,N/A,,Overcast,270,2013-01-02 03:23:00
10:54 PM,54.0,52.0,93,29.99,7.0,Calm,Calm,-,N/A,,Overcast,0,2013-01-02 03:54:00
11:29 PM,53.6,51.8,94,29.99,2.5,Calm,Calm,-,0.02,Rain,Rain,0,2013-01-02 04:29:00
11:50 PM,53.6,51.8,94,29.98,3.0,NE,3.5,-,0.03,Rain,Light Rain,40,2013-01-02 04:50:00
11:54 PM,53.1,52.0,96,29.97,2.5,Calm,Calm,-,0.03,Rain,Light Rain,0,2013-01-02 04:54:00